Hauptseite
METAR-TAF:

METAR-TAF

Flughäfen :

Bohrplattform Norsk Hydro

Oseberg, Norwegen

Breite: 60-29-29N, Länge: 2-49-32E, Höhe: 158 m

Beobachtung

Neuester Wetterbericht von vor 43 Minuten, um 11:20 UTC
Wind 13 kt aus Nord/Nordost, variierte zwischen Nord und Ost/Nordost
Temperatur 8°C
Luftfeuchtigkeit 81%
Luftdruck 1005 hPa
Sichtweite 10 km oder mehr
Aufgelockert bewölkt in der Höhe von 1500 ft

METAR: ENOA 141120Z 03013KT 010V070 9999 SCT015 08/05 Q1005 W///S/

Zeit: 13:03 (12:03 UTC)

Prognose

Gültige Prognose vom 14 um 12 UTC bis 15 um 12 UTC
Wind 15 kt aus Nord/Nordost
Sichtweite 10 km oder mehr
Leicht bewölkt in der Höhe von 1500 ft
Durchbrochene Bewölkung in der Höhe von 5000 ft

TAF: ENOA 1412/1512 02015KT 9999 FEW015 BKN050

Wetterbeobachtungen und Prognosen von mehr als 4000 Flughäfen (METAR und TAF Bericht).

Die verfügbaren Stationen werden durch gelbe und rote Markierungen auf der Karte dargestellt.

Führen Sie die Maus auf sie, um den Namen der Station zu sehen.

Darauf klicken, um die Beobachtung von Wetterbeobachtungen und Prognosen zu sehen.

Um die Karte zu ändern : klicken Sie auf den grünen Tasten mit einem schwarzen Kreuz Zum Vergrößern, auf den grünen Button mit einem Gedankenstrich zu verkleinern, oder auf die grünen Pfeile für benachbarte Karten.


METAR-TAF: